Alexis, IL

5:00 PM CDT on August 21, 2014 (GMT -0500)
Galesburg Municipal | Change Station
CLOSE
Current Station
Airport
Location: Galesburg,
Elevation: 764 ft
Nearby Weather Stations

Elev 764 ft 40.94 °N, 90.43 °W | Updated 25 minutes ago

Clear
Clear
87 °F
Feels Like 98 °F
N
4
Wind Variable Wind from ESE

Today
High -- | Low -- °F
--% Chance of Precip.
Yesterday
High -- | Low -- °F
Precip. -- in
6:17 AM 7:52 PM
Waning Crescent, 12% visible
Pressure 29.92 in
Visibility 10.0 miles
Clouds Clear
Heat Index 98 °F
Dew Point 76 °F
Humidity 68%
Rainfall 0.29 in
Snow Depth Not available.
UV 4 out of 12
Pollen 8.00 out of 12
Air Quality Not available.
Flu Activity Not available.
METAR KGBG 212135Z AUTO 12003KT 10SM CLR 31/24 A2992 RMK AO2 T03080243

More Conditions Fewer Conditions

Pressure 29.92 in
Visibility 10.0 miles
Clouds Clear
Heat Index 98 °F
Dew Point 76 °F
Humidity 68%
Rainfall 0.29 in
Snow Depth Not available.
UV 4 out of 12
Pollen 8.00 out of 12
Air Quality Not available.
Flu Activity Not available.
METAR KGBG 212135Z AUTO 12003KT 10SM CLR 31/24 A2992 RMK AO2 T03080243

More Conditions Fewer Conditions

10-Day Weather Forecast

Almanac

Astronomy

Aug. 21, 2014 Rise Set
Actual Time 6:17 AM CDT 7:52 PM CDT
Civil Twilight 5:48 AM CDT 8:20 PM CDT
Nautical Twilight 5:13 AM CDT 8:55 PM CDT
Astronomical Twilight 4:36 AM CDT 9:33 PM CDT
Moon 2:47 AM CDT 5:21 PM CDT
Length of Visible Light 14h 32m
Length of Day
13h 34m
Tomorrow will be 2m 30s shorter.
Waning Crescent, 12% of the Moon is Illuminated
Today
Waning Crescent
Aug 25
New
Sep 2
First Quarter
Sep 8
Full
Sep 15
Last Quarter

Today's Extremes

State Highs State Lows

Community

WunderPhotos

Upload Photos

1,746,033 photos uploaded!

WunderBlogs® & News

Nearby

Snow Depth

Station Depth Elevation
No new snow has been reported.

Earthquake Activity

City Distance Mag. Time & Date
No recent earthquake activity has been reported nearby.
Minimum magnitude displayed is 2.5.

Coastal Water Temperatures

Place Temperature
No Stations Reporting

Nearby Weather Stations